createdAt,value
2018-11-02T00:01:39.741Z,100.00
2018-11-02T00:04:08.845Z,100.00
2018-11-02T00:06:37.925Z,100.00
2018-11-02T00:09:07.676Z,100.00
2018-11-02T00:11:36.777Z,100.00
2018-11-02T00:14:07.339Z,100.00
2018-11-02T00:16:36.476Z,100.00
2018-11-02T00:19:05.910Z,100.00
2018-11-02T00:21:34.989Z,100.00
2018-11-02T00:24:04.101Z,100.00
2018-11-02T00:26:33.278Z,100.00
2018-11-02T00:29:02.374Z,100.00
2018-11-02T00:31:31.984Z,100.00
2018-11-02T00:34:01.041Z,100.00
2018-11-02T00:36:30.245Z,100.00
2018-11-02T00:38:59.362Z,100.00
2018-11-02T00:41:28.544Z,100.00
2018-11-02T00:43:57.766Z,100.00
2018-11-02T00:46:26.785Z,100.00
2018-11-02T00:48:55.852Z,100.00
2018-11-02T00:51:25.046Z,100.00
2018-11-02T00:53:54.220Z,100.00
2018-11-02T00:56:23.298Z,100.00
2018-11-02T00:58:52.403Z,100.00
2018-11-02T01:01:21.497Z,100.00
2018-11-02T01:03:50.685Z,100.00
2018-11-02T01:06:19.823Z,100.00
2018-11-02T01:08:49.100Z,100.00
2018-11-02T01:11:18.316Z,100.00
2018-11-02T01:13:47.515Z,100.00
2018-11-02T01:16:16.620Z,100.00
2018-11-02T01:18:45.736Z,100.00
2018-11-02T01:21:14.881Z,100.00
2018-11-02T01:23:44.128Z,100.00
2018-11-02T01:26:13.207Z,100.00
2018-11-02T01:28:42.341Z,100.00
2018-11-02T01:31:11.599Z,100.00
2018-11-02T01:33:40.777Z,100.00
2018-11-02T01:36:10.775Z,100.00
2018-11-02T01:38:40.008Z,100.00
2018-11-02T01:41:09.133Z,100.00
2018-11-02T01:43:38.260Z,100.00
2018-11-02T01:46:07.482Z,100.00
2018-11-02T01:48:36.766Z,100.00
2018-11-02T01:51:05.873Z,100.00
2018-11-02T01:53:35.072Z,100.00
2018-11-02T01:56:04.300Z,100.00
2018-11-02T01:58:33.578Z,100.00
2018-11-02T02:01:02.739Z,100.00
2018-11-02T02:03:31.958Z,100.00
2018-11-02T02:06:01.060Z,100.00
2018-11-02T02:08:30.194Z,100.00
2018-11-02T02:10:59.374Z,100.00
2018-11-02T02:13:28.558Z,100.00
2018-11-02T02:15:57.857Z,100.00
2018-11-02T02:18:26.940Z,100.00
2018-11-02T02:20:56.144Z,100.00
2018-11-02T02:23:25.422Z,100.00
2018-11-02T02:25:54.482Z,100.00
2018-11-02T02:28:23.648Z,100.00
2018-11-02T02:30:52.898Z,100.00
2018-11-02T02:33:22.228Z,100.00
2018-11-02T02:35:51.335Z,100.00
2018-11-02T02:38:20.924Z,100.00
2018-11-02T02:40:50.075Z,100.00
2018-11-02T02:43:19.240Z,100.00
2018-11-02T02:45:48.386Z,100.00
2018-11-02T02:48:17.536Z,100.00
2018-11-02T02:50:46.611Z,100.00
2018-11-02T02:53:16.055Z,100.00
2018-11-02T02:55:45.228Z,100.00
2018-11-02T02:58:14.307Z,100.00
2018-11-02T03:00:43.554Z,100.00
2018-11-02T03:03:12.703Z,100.00
2018-11-02T03:05:41.913Z,100.00
2018-11-02T03:08:11.017Z,100.00
2018-11-02T03:10:40.205Z,100.00
2018-11-02T03:13:09.293Z,100.00
2018-11-02T03:15:38.529Z,100.00
2018-11-02T03:18:07.762Z,100.00
2018-11-02T03:20:36.866Z,100.00
2018-11-02T03:23:06.424Z,100.00
2018-11-02T03:25:35.496Z,100.00
2018-11-02T03:28:05.698Z,100.00
2018-11-02T03:30:34.792Z,100.00
2018-11-02T03:33:04.453Z,100.00
2018-11-02T03:35:33.602Z,100.00
2018-11-02T03:38:02.717Z,100.00
2018-11-02T03:40:31.824Z,100.00
2018-11-02T03:43:01.343Z,100.00
2018-11-02T03:45:30.495Z,100.00
2018-11-02T03:47:59.619Z,100.00
2018-11-02T03:50:28.793Z,100.00
2018-11-02T03:52:57.984Z,100.00
2018-11-02T03:55:27.708Z,100.00
2018-11-02T03:57:56.804Z,100.00
2018-11-02T04:00:26.008Z,100.00
2018-11-02T04:02:55.100Z,100.00
2018-11-02T04:05:24.308Z,100.00
2018-11-02T04:07:53.418Z,100.00
2018-11-02T04:10:22.512Z,100.00
2018-11-02T04:12:51.622Z,100.00
2018-11-02T04:15:20.795Z,100.00
2018-11-02T04:17:49.973Z,100.00
2018-11-02T04:20:19.086Z,100.00
2018-11-02T04:22:48.200Z,100.00
2018-11-02T04:25:17.332Z,100.00
2018-11-02T04:27:46.464Z,100.00
2018-11-02T04:30:15.553Z,100.00
2018-11-02T04:32:44.750Z,100.00
2018-11-02T04:35:13.867Z,100.00
2018-11-02T04:37:42.952Z,100.00
2018-11-02T04:40:12.052Z,100.00
2018-11-02T04:42:41.245Z,100.00
2018-11-02T04:45:10.331Z,100.00
2018-11-02T04:47:39.412Z,100.00
2018-11-02T04:50:09.271Z,100.00
2018-11-02T04:52:38.399Z,100.00
2018-11-02T04:55:07.547Z,100.00
2018-11-02T04:57:36.670Z,100.00
2018-11-02T05:00:07.591Z,100.00
2018-11-02T05:02:36.669Z,100.00
2018-11-02T05:05:05.909Z,100.00
2018-11-02T05:07:35.052Z,100.00
2018-11-02T05:10:04.587Z,100.00
2018-11-02T05:12:33.678Z,100.00
2018-11-02T05:15:02.760Z,100.00
2018-11-02T05:17:32.097Z,100.00
2018-11-02T05:20:01.253Z,100.00
2018-11-02T05:22:30.413Z,100.00
2018-11-02T05:24:59.525Z,100.00
2018-11-02T05:27:28.756Z,100.00
2018-11-02T05:29:57.885Z,100.00
2018-11-02T05:32:26.951Z,100.00
2018-11-02T05:34:56.083Z,100.00
2018-11-02T05:37:25.253Z,100.00
2018-11-02T05:39:54.956Z,100.00
2018-11-02T05:42:24.156Z,100.00
2018-11-02T05:44:53.377Z,100.00
2018-11-02T05:47:22.604Z,100.00
2018-11-02T05:49:51.661Z,100.00
2018-11-02T05:52:21.263Z,100.00
2018-11-02T05:54:50.435Z,100.00
2018-11-02T05:57:19.532Z,100.00
2018-11-02T05:59:48.753Z,100.00
2018-11-02T06:02:17.873Z,100.00
2018-11-02T06:04:46.974Z,100.00
2018-11-02T06:07:16.247Z,100.00
2018-11-02T06:09:45.392Z,100.00
2018-11-02T06:12:14.502Z,100.00
2018-11-02T06:14:43.620Z,100.00
2018-11-02T06:17:12.818Z,100.00
2018-11-02T06:19:41.995Z,100.00
2018-11-02T06:22:11.093Z,100.00
2018-11-02T06:24:40.169Z,100.00
2018-11-02T06:27:09.317Z,100.00
2018-11-02T06:29:38.429Z,100.00
2018-11-02T06:32:08.236Z,100.00
2018-11-02T06:34:37.635Z,100.00
2018-11-02T06:37:06.804Z,100.00
2018-11-02T06:39:35.884Z,100.00
2018-11-02T06:42:05.884Z,100.00
2018-11-02T06:44:35.775Z,100.00
2018-11-02T06:47:04.905Z,100.00
2018-11-02T06:49:34.109Z,100.00
2018-11-02T06:52:03.228Z,100.00
2018-11-02T06:54:32.378Z,100.00
2018-11-02T06:57:01.480Z,100.00
2018-11-02T06:59:31.600Z,100.00
2018-11-02T07:02:01.163Z,100.00
2018-11-02T07:04:30.341Z,100.00
2018-11-02T07:06:59.595Z,100.00
2018-11-02T07:09:28.625Z,100.00
2018-11-02T07:11:57.697Z,100.00
2018-11-02T07:14:26.803Z,100.00
2018-11-02T07:16:55.892Z,100.00
2018-11-02T07:19:25.001Z,100.00
2018-11-02T07:21:54.172Z,100.00
2018-11-02T07:24:23.252Z,100.00
2018-11-02T07:26:52.364Z,100.00
2018-11-02T07:29:21.560Z,100.00
2018-11-02T07:31:50.746Z,100.00
2018-11-02T07:34:19.857Z,100.00
2018-11-02T07:36:49.480Z,100.00
2018-11-02T07:39:18.692Z,100.00
2018-11-02T07:41:47.775Z,100.00
2018-11-02T07:44:16.984Z,100.00
2018-11-02T07:46:46.168Z,100.00
2018-11-02T07:49:15.346Z,100.00
2018-11-02T07:51:44.561Z,100.00
2018-11-02T07:54:13.783Z,100.00
2018-11-02T07:56:42.860Z,100.00
2018-11-02T07:59:12.080Z,100.00
2018-11-02T08:01:41.218Z,100.00
2018-11-02T08:04:10.312Z,100.00
2018-11-02T08:06:39.480Z,100.00
2018-11-02T08:09:10.107Z,100.00
2018-11-02T08:11:39.349Z,100.00
2018-11-02T08:14:08.590Z,100.00
2018-11-02T08:16:37.719Z,100.00
2018-11-02T08:19:06.985Z,100.00
2018-11-02T08:21:36.075Z,100.00
2018-11-02T08:24:06.237Z,100.00
2018-11-02T08:26:35.374Z,100.00
2018-11-02T08:29:04.579Z,100.00
2018-11-02T08:31:33.673Z,100.00
2018-11-02T08:34:02.885Z,100.00
2018-11-02T08:36:32.289Z,100.00
2018-11-02T08:39:01.549Z,100.00
2018-11-02T08:41:30.637Z,100.00
2018-11-02T08:43:59.825Z,100.00
2018-11-02T08:46:28.971Z,100.00
2018-11-02T08:48:58.068Z,100.00
2018-11-02T08:51:27.259Z,100.00
2018-11-02T08:53:56.366Z,100.00
2018-11-02T08:56:25.548Z,100.00
2018-11-02T08:58:54.829Z,100.00
2018-11-02T09:01:23.950Z,100.00
2018-11-02T09:03:53.130Z,99.08
2018-11-02T09:06:22.255Z,99.17
2018-11-02T09:08:51.431Z,98.65
2018-11-02T09:11:20.631Z,97.55
2018-11-02T09:13:49.841Z,96.71
2018-11-02T09:16:18.993Z,96.83
2018-11-02T09:18:48.289Z,96.85
2018-11-02T09:21:17.339Z,96.15
2018-11-02T09:23:46.496Z,96.46
2018-11-02T09:26:15.611Z,94.98
2018-11-02T09:28:44.817Z,94.67
2018-11-02T09:31:13.940Z,94.44
2018-11-02T09:33:43.157Z,93.66
2018-11-02T09:36:12.276Z,93.67
2018-11-02T09:38:41.478Z,93.35
2018-11-02T09:41:10.577Z,92.03
2018-11-02T09:43:39.796Z,92.40
2018-11-02T09:46:08.935Z,91.60
2018-11-02T09:48:38.721Z,90.44
2018-11-02T09:51:07.924Z,91.43
2018-11-02T09:53:37.112Z,91.15
2018-11-02T09:56:06.699Z,90.73
2018-11-02T09:58:35.914Z,90.76
2018-11-02T10:01:05.316Z,90.80
2018-11-02T10:03:34.535Z,90.66
2018-11-02T10:06:04.083Z,89.97
2018-11-02T10:08:33.298Z,90.44
2018-11-02T10:11:02.387Z,88.62
2018-11-02T10:13:31.632Z,88.65
2018-11-02T10:16:00.910Z,87.74
2018-11-02T10:18:30.094Z,87.85
2018-11-02T10:20:59.281Z,87.52
2018-11-02T10:23:28.455Z,86.40
2018-11-02T10:25:57.580Z,85.68
2018-11-02T10:28:26.815Z,85.06
2018-11-02T10:30:56.067Z,84.91
2018-11-02T10:33:25.321Z,84.75
2018-11-02T10:35:54.786Z,84.21
2018-11-02T10:38:24.081Z,85.38
2018-11-02T10:40:55.211Z,85.79
2018-11-02T10:43:25.179Z,85.05
2018-11-02T10:45:57.137Z,86.71
2018-11-02T10:48:27.464Z,87.99
2018-11-02T10:50:56.664Z,88.27
2018-11-02T10:53:26.277Z,87.59
2018-11-02T10:55:55.396Z,87.98
2018-11-02T10:58:24.536Z,87.87
2018-11-02T11:00:59.130Z,88.66
2018-11-02T11:03:28.480Z,88.88
2018-11-02T11:05:57.657Z,89.77
2018-11-02T11:08:26.892Z,89.75
2018-11-02T11:10:56.058Z,89.65
2018-11-02T11:13:25.616Z,89.95
2018-11-02T11:15:54.491Z,90.42
2018-11-02T11:18:23.715Z,90.06
2018-11-02T11:20:52.828Z,90.43
2018-11-02T11:23:22.660Z,91.10
2018-11-02T11:25:51.846Z,91.26
2018-11-02T11:28:21.071Z,92.05
2018-11-02T11:30:50.268Z,92.74
2018-11-02T11:33:19.521Z,93.26
2018-11-02T11:35:48.645Z,94.03
2018-11-02T11:38:17.854Z,94.14
2018-11-02T11:40:46.969Z,94.10
2018-11-02T11:43:16.071Z,94.23
2018-11-02T11:45:45.242Z,93.89
2018-11-02T11:48:15.292Z,94.11
2018-11-02T11:50:44.453Z,94.38
2018-11-02T11:53:13.558Z,94.33
2018-11-02T11:55:42.749Z,94.45
2018-11-02T11:58:11.932Z,94.76
2018-11-02T12:00:41.151Z,95.20
2018-11-02T12:03:10.272Z,95.87
2018-11-02T12:05:39.438Z,95.41
2018-11-02T12:08:08.569Z,95.83
2018-11-02T12:10:37.692Z,96.21
2018-11-02T12:13:07.373Z,96.27
2018-11-02T12:15:36.840Z,96.50
2018-11-02T12:18:06.344Z,96.33
2018-11-02T12:20:35.509Z,96.58
2018-11-02T12:23:04.633Z,96.11
2018-11-02T12:25:35.258Z,95.74
2018-11-02T12:28:07.740Z,95.81
2018-11-02T12:30:40.064Z,95.99
2018-11-02T12:33:10.341Z,96.02
2018-11-02T12:35:40.151Z,96.07
2018-11-02T12:38:09.261Z,95.86
2018-11-02T12:40:38.509Z,96.00
2018-11-02T12:43:07.671Z,95.56
2018-11-02T12:45:36.791Z,95.06
2018-11-02T12:48:06.119Z,94.17
2018-11-02T12:50:35.212Z,93.73
2018-11-02T12:53:04.335Z,93.40
2018-11-02T12:55:33.559Z,91.58
2018-11-02T12:58:02.675Z,91.17
2018-11-02T13:00:31.987Z,90.59
2018-11-02T13:03:01.095Z,90.75
2018-11-02T13:05:30.512Z,90.44
2018-11-02T13:07:59.711Z,89.76
2018-11-02T13:10:28.928Z,89.26
2018-11-02T13:13:03.925Z,89.36
2018-11-02T13:15:34.684Z,89.76
2018-11-02T13:18:04.600Z,90.22
2018-11-02T13:20:43.308Z,89.88
2018-11-02T13:23:13.908Z,89.71
2018-11-02T13:25:43.615Z,90.16
2018-11-02T13:28:12.850Z,90.60
2018-11-02T13:30:42.887Z,90.54
2018-11-02T13:33:12.151Z,90.78
2018-11-02T13:35:41.838Z,90.52
2018-11-02T13:38:11.192Z,89.84
2018-11-02T13:40:40.807Z,89.55
2018-11-02T13:43:13.557Z,88.84
2018-11-02T13:45:42.884Z,88.42
2018-11-02T13:48:15.614Z,88.27
2018-11-02T13:50:46.462Z,87.96
2018-11-02T13:53:15.721Z,87.88
2018-11-02T13:55:49.127Z,86.42
2018-11-02T13:58:21.629Z,87.66
2018-11-02T14:00:50.882Z,88.06
2018-11-02T14:03:20.658Z,88.59
2018-11-02T14:05:56.293Z,88.55
2018-11-02T14:08:34.713Z,88.64
2018-11-02T14:11:04.430Z,89.17
2018-11-02T14:13:39.675Z,88.76
2018-11-02T14:16:09.399Z,88.87
2018-11-02T14:18:39.318Z,89.23
2018-11-02T14:21:08.413Z,90.29
2018-11-02T14:23:37.961Z,90.46
2018-11-02T14:26:07.729Z,90.78
2018-11-02T14:28:37.048Z,91.47
2018-11-02T14:31:06.565Z,91.95
2018-11-02T14:33:35.688Z,92.57
2018-11-02T14:36:04.961Z,92.34
2018-11-02T14:38:34.129Z,92.16
2018-11-02T14:41:03.314Z,92.66
2018-11-02T14:43:32.386Z,93.16
2018-11-02T14:46:01.665Z,92.94
2018-11-02T14:48:30.793Z,92.22
2018-11-02T14:51:00.509Z,92.14
2018-11-02T14:53:29.655Z,93.51
2018-11-02T14:55:58.905Z,93.50
2018-11-02T14:58:28.072Z,94.09
2018-11-02T15:00:57.200Z,94.85
2018-11-02T15:03:26.458Z,94.65
2018-11-02T15:05:55.548Z,96.53
2018-11-02T15:08:25.784Z,95.92
2018-11-02T15:10:54.971Z,96.39
2018-11-02T15:13:24.114Z,97.05
2018-11-02T15:15:53.214Z,97.68
2018-11-02T15:18:22.357Z,98.34
2018-11-02T15:20:51.482Z,99.21
2018-11-02T15:23:20.599Z,98.61
2018-11-02T15:25:49.728Z,100.00
2018-11-02T15:28:18.892Z,100.00
2018-11-02T15:30:48.012Z,100.00
2018-11-02T15:33:17.159Z,100.00
2018-11-02T15:35:46.272Z,100.00
2018-11-02T15:38:15.474Z,100.00
2018-11-02T15:40:44.631Z,100.00
2018-11-02T15:43:13.913Z,100.00
2018-11-02T15:45:43.026Z,100.00
2018-11-02T15:48:12.221Z,100.00
2018-11-02T15:50:41.327Z,100.00
2018-11-02T15:53:10.584Z,100.00
2018-11-02T15:55:39.661Z,100.00
2018-11-02T15:58:08.763Z,100.00
2018-11-02T16:00:38.087Z,100.00
2018-11-02T16:03:07.113Z,100.00
2018-11-02T16:05:36.229Z,100.00
2018-11-02T16:08:05.425Z,100.00
2018-11-02T16:10:34.625Z,100.00
2018-11-02T16:13:03.696Z,100.00
2018-11-02T16:15:38.067Z,100.00
2018-11-02T16:18:07.233Z,100.00
2018-11-02T16:20:37.305Z,100.00
2018-11-02T16:23:06.734Z,100.00
2018-11-02T16:25:35.848Z,100.00
2018-11-02T16:28:05.333Z,100.00
2018-11-02T16:30:34.419Z,100.00
2018-11-02T16:33:03.538Z,100.00
2018-11-02T16:35:32.737Z,100.00
2018-11-02T16:38:01.863Z,100.00
2018-11-02T16:40:31.041Z,100.00
2018-11-02T16:43:00.169Z,100.00
2018-11-02T16:45:29.259Z,100.00
2018-11-02T16:47:58.521Z,100.00
2018-11-02T16:50:27.731Z,100.00
2018-11-02T16:52:56.818Z,100.00
2018-11-02T16:55:25.938Z,100.00
2018-11-02T16:57:55.268Z,100.00
2018-11-02T17:00:24.288Z,100.00
2018-11-02T17:02:53.395Z,100.00
2018-11-02T17:05:22.669Z,100.00
2018-11-02T17:07:51.763Z,100.00
2018-11-02T17:10:20.848Z,100.00
2018-11-02T17:12:50.128Z,100.00
2018-11-02T17:15:19.479Z,100.00
2018-11-02T17:17:48.601Z,100.00
2018-11-02T17:20:18.549Z,100.00
2018-11-02T17:22:47.997Z,100.00
2018-11-02T17:25:17.141Z,100.00
2018-11-02T17:27:46.302Z,100.00
2018-11-02T17:30:17.206Z,100.00
2018-11-02T17:32:46.425Z,100.00
2018-11-02T17:35:15.630Z,100.00
2018-11-02T17:37:44.731Z,100.00
2018-11-02T17:40:15.209Z,100.00
2018-11-02T17:42:44.940Z,100.00
2018-11-02T17:45:14.065Z,100.00
2018-11-02T17:47:43.623Z,100.00
2018-11-02T17:50:13.735Z,100.00
2018-11-02T17:52:43.148Z,100.00
2018-11-02T17:55:12.272Z,100.00
2018-11-02T17:57:41.469Z,100.00
2018-11-02T18:00:12.253Z,100.00
2018-11-02T18:02:41.677Z,100.00
2018-11-02T18:05:11.387Z,100.00
2018-11-02T18:07:40.580Z,100.00
2018-11-02T18:10:11.265Z,100.00
2018-11-02T18:12:41.040Z,100.00
2018-11-02T18:15:10.808Z,100.00
2018-11-02T18:17:42.139Z,100.00
2018-11-02T18:20:13.207Z,100.00
2018-11-02T18:22:42.358Z,100.00
2018-11-02T18:25:11.603Z,100.00
2018-11-02T18:27:41.213Z,100.00
2018-11-02T18:30:11.081Z,100.00
2018-11-02T18:32:40.234Z,100.00
2018-11-02T18:35:09.769Z,100.00
2018-11-02T18:37:38.844Z,100.00
2018-11-02T18:40:09.828Z,100.00
2018-11-02T18:42:39.029Z,100.00
2018-11-02T18:45:10.245Z,100.00
2018-11-02T18:47:44.726Z,100.00
2018-11-02T18:50:15.517Z,100.00
2018-11-02T18:52:45.057Z,100.00
2018-11-02T18:55:14.165Z,100.00
2018-11-02T18:57:43.387Z,100.00
2018-11-02T19:00:12.954Z,100.00
2018-11-02T19:02:42.388Z,100.00
2018-11-02T19:05:13.732Z,100.00
2018-11-02T19:07:42.916Z,100.00
2018-11-02T19:10:12.421Z,100.00
2018-11-02T19:12:41.930Z,100.00
2018-11-02T19:15:15.659Z,100.00
2018-11-02T19:17:44.800Z,100.00
2018-11-02T19:20:14.381Z,100.00
2018-11-02T19:22:43.485Z,100.00
2018-11-02T19:25:13.774Z,100.00
2018-11-02T19:27:43.482Z,100.00
2018-11-02T19:30:13.493Z,100.00
2018-11-02T19:32:42.945Z,100.00
2018-11-02T19:35:13.044Z,100.00
2018-11-02T19:37:42.533Z,100.00
2018-11-02T19:40:24.244Z,100.00
2018-11-02T19:42:59.376Z,100.00
2018-11-02T19:45:28.494Z,100.00
2018-11-02T19:48:02.397Z,100.00
2018-11-02T19:50:31.523Z,100.00
2018-11-02T19:53:00.613Z,100.00
2018-11-02T19:55:29.755Z,100.00
2018-11-02T19:57:58.878Z,100.00
2018-11-02T20:00:28.014Z,100.00
2018-11-02T20:02:57.089Z,100.00
2018-11-02T20:05:26.380Z,100.00
2018-11-02T20:07:55.540Z,100.00
2018-11-02T20:10:24.768Z,100.00
2018-11-02T20:12:53.890Z,100.00
2018-11-02T20:15:23.000Z,100.00
2018-11-02T20:17:52.248Z,100.00
2018-11-02T20:20:21.302Z,100.00
2018-11-02T20:22:50.417Z,100.00
2018-11-02T20:25:19.520Z,100.00
2018-11-02T20:27:48.624Z,100.00
2018-11-02T20:30:19.096Z,100.00
2018-11-02T20:32:48.195Z,100.00
2018-11-02T20:35:17.336Z,100.00
2018-11-02T20:37:46.451Z,100.00
2018-11-02T20:40:19.477Z,100.00
2018-11-02T20:42:48.682Z,100.00
2018-11-02T20:45:17.992Z,100.00
2018-11-02T20:47:47.688Z,100.00
2018-11-02T20:50:17.162Z,100.00
2018-11-02T20:52:46.284Z,100.00
2018-11-02T20:55:15.914Z,100.00
2018-11-02T20:57:45.039Z,100.00
2018-11-02T21:00:16.436Z,100.00
2018-11-02T21:02:46.095Z,100.00
2018-11-02T21:05:16.736Z,100.00
2018-11-02T21:07:46.553Z,100.00
2018-11-02T21:10:16.917Z,100.00
2018-11-02T21:12:46.104Z,100.00
2018-11-02T21:15:17.387Z,100.00
2018-11-02T21:17:46.512Z,100.00
2018-11-02T21:20:17.082Z,100.00
2018-11-02T21:22:46.232Z,100.00
2018-11-02T21:25:15.680Z,100.00
2018-11-02T21:27:45.389Z,100.00
2018-11-02T21:30:16.555Z,100.00
2018-11-02T21:32:46.440Z,100.00
2018-11-02T21:35:16.126Z,100.00
2018-11-02T21:37:45.568Z,100.00
2018-11-02T21:40:16.897Z,100.00
2018-11-02T21:42:46.108Z,100.00
2018-11-02T21:45:16.521Z,100.00
2018-11-02T21:47:45.937Z,100.00
2018-11-02T21:50:15.344Z,100.00
2018-11-02T21:52:44.436Z,100.00
2018-11-02T21:55:13.528Z,100.00
2018-11-02T21:57:42.654Z,100.00
2018-11-02T22:00:16.269Z,100.00
2018-11-02T22:02:45.568Z,100.00
2018-11-02T22:05:14.940Z,100.00
2018-11-02T22:07:45.381Z,100.00
2018-11-02T22:10:14.889Z,100.00
2018-11-02T22:12:43.983Z,100.00
2018-11-02T22:15:13.137Z,100.00
2018-11-02T22:17:42.281Z,100.00
2018-11-02T22:20:12.611Z,100.00
2018-11-02T22:22:41.977Z,100.00
2018-11-02T22:25:12.017Z,100.00
2018-11-02T22:27:41.149Z,100.00
2018-11-02T22:30:12.847Z,100.00
2018-11-02T22:32:41.991Z,100.00
2018-11-02T22:35:11.802Z,100.00
2018-11-02T22:37:41.147Z,100.00
2018-11-02T22:40:11.289Z,100.00
2018-11-02T22:42:40.999Z,100.00
2018-11-02T22:45:11.124Z,100.00
2018-11-02T22:47:40.603Z,100.00
2018-11-02T22:50:10.004Z,100.00
2018-11-02T22:52:39.193Z,100.00
2018-11-02T22:55:09.009Z,100.00
2018-11-02T22:57:38.176Z,100.00
2018-11-02T23:00:12.998Z,100.00
2018-11-02T23:02:42.144Z,100.00
2018-11-02T23:05:11.305Z,100.00
2018-11-02T23:07:40.500Z,100.00
2018-11-02T23:10:09.840Z,100.00
2018-11-02T23:12:39.284Z,100.00
2018-11-02T23:15:09.273Z,100.00
2018-11-02T23:17:38.567Z,100.00
2018-11-02T23:20:09.906Z,100.00
2018-11-02T23:22:39.003Z,100.00
2018-11-02T23:25:09.064Z,100.00
2018-11-02T23:27:38.380Z,100.00
2018-11-02T23:30:08.242Z,100.00
2018-11-02T23:32:37.348Z,100.00
2018-11-02T23:35:06.577Z,100.00
2018-11-02T23:37:35.856Z,100.00
2018-11-02T23:40:05.512Z,100.00
2018-11-02T23:42:34.608Z,100.00
2018-11-02T23:45:03.876Z,100.00
2018-11-02T23:47:32.868Z,100.00
2018-11-02T23:50:02.340Z,100.00
2018-11-02T23:52:31.473Z,100.00
2018-11-02T23:55:00.580Z,100.00
2018-11-02T23:57:29.751Z,100.00
2018-11-02T23:59:58.852Z,100.00
